KRFD Airport (Chicago/Rockford Intl) Information

FAA: RFD - ICAO: KRFD

KRFD Airport Location

State Illinois
County Winnebago
City Chicago/Rockford
KRFD Airport is 68 miles northwest of Chicago/Rockford, IL.
Latitude 42-11-43.3000N
Longitude 089-05-50.0000W
Elevation 742ft

KRFD Airport METARs

METAR KRFD 020154Z 15003KT 10SM CLR M08/M13 A3023 RMK AO2 SLP252 T10831128
Altimeter 30.23"
Temperature -8.3°C (17.1°F)
Wind 150° at 3KT
Clouds Skies are clear.
Visibility 10.0mi
Time observed: 2023-02-02T01:54:00Z

KRFD Airport Details

Status Operational
Activation March 1950
Ownership Public
Usage Public
Chart CHICAGO
ATC on-site Yes
Beacon schedule sunset-sunrise
Beacon color clear green

KRFD Airport Contacts

Owner GREATER ROCKFORD ARPT. AUTH.
Owner address 60 ARPT DRIVE, ROCKFORD, IL 61109-2902
Owner phone 815-969-4011
Manager MICHAEL GORHAM
Manager address 2400 N ROCKTON, ROCKFORD, IL 61103
Manager phone (815) 971-5628

KRFD Airport (Chicago/Rockford Intl) Radio Frequencies

KRFD (Airport) Radio Frequencies

UNICOM 122.95
Common traffic advisory frequency (CTAF) N/A